Time;durP1;ratioP1;P1;durP2;ratioP2;P2;SDS_P1;SDS_P2;PMS_P1;PMS_P2;Temp;Humidity;BMP_temperature;BMP_pressure;BME280_temperature;BME280_humidity;BME280_pressure;Samples;Min_cycle;Max_cycle;Signal;HPM_P1;HPM_P2
2022/08/18 00:02:08;;;;;;;129.35;79.68;;;19.30;99.90;;;;;;5113764;28;20190;-71
2022/08/18 00:04:37;;;;;;;131.00;81.78;;;19.40;99.90;;;;;;5113617;28;20176;-71
2022/08/18 00:07:10;;;;;;;133.60;83.03;;;19.30;99.90;;;;;;5113244;28;20214;-71
2022/08/18 00:09:38;;;;;;;131.20;81.63;;;19.30;99.90;;;;;;5113569;28;20211;-70
2022/08/18 00:12:16;;;;;;;136.85;81.63;;;19.30;99.90;;;;;;5113835;28;20198;-71
2022/08/18 00:14:43;;;;;;;141.18;84.10;;;19.20;99.90;;;;;;5113164;28;20182;-71
2022/08/18 00:17:09;;;;;;;144.45;85.95;;;19.20;99.90;;;;;;5113314;28;20693;-71
2022/08/18 00:19:34;;;;;;;140.38;84.13;;;19.10;99.90;;;;;;5113239;28;20266;-70
2022/08/18 00:22:00;;;;;;;138.02;84.00;;;19.20;99.90;;;;;;5113526;28;20174;-70
2022/08/18 00:24:25;;;;;;;142.93;83.85;;;19.20;99.90;;;;;;5113335;28;20218;-70
2022/08/18 00:26:51;;;;;;;129.40;81.10;;;19.30;99.90;;;;;;5113582;28;20171;-71
2022/08/18 00:29:17;;;;;;;133.60;81.80;;;19.30;99.90;;;;;;5113060;28;20202;-71
2022/08/18 00:31:43;;;;;;;130.30;79.82;;;19.20;99.90;;;;;;5113532;28;20166;-71
2022/08/18 00:34:08;;;;;;;126.35;78.90;;;19.20;99.90;;;;;;5113288;28;20171;-70
2022/08/18 00:36:34;;;;;;;122.82;75.95;;;19.20;99.90;;;;;;5112418;28;20163;-70
2022/08/18 00:39:01;;;;;;;123.03;74.28;;;18.90;99.90;;;;;;5113516;28;20241;-70
2022/08/18 00:41:27;;;;;;;132.32;76.68;;;18.70;99.90;;;;;;5113353;28;20163;-70
2022/08/18 00:43:54;;;;;;;144.37;79.50;;;18.60;99.90;;;;;;5113038;28;20183;-70
2022/08/18 00:46:40;;;;;;;140.47;79.07;;;18.50;99.90;;;;;;5112100;28;20271;-71
2022/08/18 00:49:05;;;;;;;156.43;82.88;;;18.60;99.90;;;;;;5111623;28;20218;-70
2022/08/18 00:51:42;;;;;;;157.98;82.97;;;18.80;99.90;;;;;;5113474;28;20168;-71
2022/08/18 00:54:27;;;;;;;163.40;84.40;;;18.80;99.90;;;;;;5113216;28;20529;-70
2022/08/18 00:56:57;;;;;;;165.77;85.45;;;18.90;99.90;;;;;;5113193;28;20692;-71
2022/08/18 00:59:27;;;;;;;158.95;85.50;;;18.90;99.90;;;;;;5111740;28;20262;-71
2022/08/18 01:02:00;;;;;;;158.82;87.65;;;18.80;99.90;;;;;;5113415;28;20175;-71
2022/08/18 01:04:41;;;;;;;175.52;88.88;;;18.80;99.90;;;;;;5113223;28;20220;-71
2022/08/18 01:07:19;;;;;;;165.60;86.45;;;18.90;99.90;;;;;;5112731;28;20294;-71
2022/08/18 01:09:46;;;;;;;168.38;87.85;;;18.90;99.90;;;;;;5113166;28;20661;-70
2022/08/18 01:12:12;;;;;;;165.55;86.65;;;18.90;99.90;;;;;;5116113;28;20174;-70
2022/08/18 01:14:38;;;;;;;170.30;88.25;;;19.00;99.90;;;;;;5116932;28;20171;-70
2022/08/18 01:22:46;;;;;;;168.52;86.90;;;19.20;99.90;;;;;;5116745;28;20216;-71
2022/08/18 01:27:57;;;;;;;174.60;88.10;;;19.50;99.90;;;;;;5116311;28;20229;-70
2022/08/18 01:30:26;;;;;;;165.15;89.22;;;19.50;99.90;;;;;;5116486;28;20610;-70
2022/08/18 01:32:52;;;;;;;157.65;86.20;;;19.60;99.90;;;;;;5116485;28;20190;-70
2022/08/18 01:35:21;;;;;;;167.27;88.40;;;19.60;99.90;;;;;;5116372;28;20631;-70
2022/08/18 01:37:47;;;;;;;158.40;87.60;;;19.70;99.90;;;;;;5116211;28;20167;-71
2022/08/18 01:40:15;;;;;;;154.82;85.28;;;19.70;99.90;;;;;;5116260;28;20183;-70
2022/08/18 01:42:44;;;;;;;154.65;86.32;;;19.70;99.90;;;;;;5116057;28;20318;-70
2022/08/18 01:45:13;;;;;;;148.45;85.78;;;19.70;99.90;;;;;;5114946;28;20167;-70
2022/08/18 01:47:39;;;;;;;147.32;86.50;;;19.70;99.90;;;;;;5116074;27;20205;-70
2022/08/18 01:50:06;;;;;;;146.73;85.68;;;19.80;99.90;;;;;;5116091;28;20194;-70
2022/08/18 01:52:34;;;;;;;147.35;84.05;;;19.90;99.90;;;;;;5115983;28;20638;-70
2022/08/18 01:55:01;;;;;;;147.25;84.32;;;19.90;99.90;;;;;;5115944;28;20164;-70
2022/08/18 01:57:28;;;;;;;148.65;84.55;;;20.00;99.90;;;;;;5115522;28;20178;-70
2022/08/18 01:59:53;;;;;;;143.45;83.20;;;20.10;99.90;;;;;;5115927;28;20159;-70
2022/08/18 02:02:23;;;;;;;140.35;83.22;;;20.20;99.90;;;;;;5115933;28;20650;-70
2022/08/18 02:04:54;;;;;;;138.60;80.13;;;20.20;99.90;;;;;;5116019;28;20622;-70
2022/08/18 02:07:20;;;;;;;136.57;79.57;;;20.30;99.90;;;;;;5114330;28;20306;-70
2022/08/18 02:09:45;;;;;;;130.57;79.22;;;20.10;99.90;;;;;;5115498;28;20765;-70
2022/08/18 02:12:11;;;;;;;133.90;78.97;;;20.00;99.90;;;;;;5115752;28;20220;-70
2022/08/18 02:14:37;;;;;;;135.32;79.93;;;20.10;99.90;;;;;;5115831;28;20198;-71
2022/08/18 02:17:05;;;;;;;134.85;79.90;;;20.20;99.90;;;;;;5115716;28;20626;-70
2022/08/18 02:19:37;;;;;;;125.50;75.85;;;20.20;99.90;;;;;;5114376;28;20175;-70
2022/08/18 02:22:04;;;;;;;131.10;77.97;;;20.30;99.90;;;;;;5115450;28;20182;-70
2022/08/18 02:24:30;;;;;;;131.00;79.35;;;20.40;99.90;;;;;;5114952;28;20329;-71
2022/08/18 02:26:56;;;;;;;124.80;76.70;;;20.50;99.90;;;;;;5115535;28;20205;-71
2022/08/18 02:29:21;;;;;;;126.20;76.55;;;20.40;99.90;;;;;;5115366;27;20206;-69
2022/08/18 02:31:47;;;;;;;124.50;75.85;;;20.40;99.90;;;;;;5115552;28;20167;-70
2022/08/18 02:34:15;;;;;;;124.20;75.65;;;20.30;99.90;;;;;;5115595;28;20653;-70
2022/08/18 02:36:40;;;;;;;121.60;74.07;;;20.40;99.90;;;;;;5115286;28;20324;-70
2022/08/18 02:39:06;;;;;;;125.75;75.72;;;20.30;99.90;;;;;;5113440;28;20582;-70
2022/08/18 02:41:32;;;;;;;122.85;76.63;;;20.20;99.90;;;;;;5115077;28;20228;-72
2022/08/18 02:43:58;;;;;;;128.30;77.97;;;20.20;99.90;;;;;;5115485;28;20178;-70
2022/08/18 02:46:25;;;;;;;121.32;71.93;;;20.10;99.90;;;;;;5115227;28;20167;-70
2022/08/18 02:48:55;;;;;;;121.47;71.45;;;20.00;99.90;;;;;;5114905;28;20210;-70
2022/08/18 02:51:21;;;;;;;123.47;72.72;;;19.80;99.90;;;;;;5115206;28;20169;-71
2022/08/18 02:53:47;;;;;;;119.95;73.60;;;19.70;99.90;;;;;;5114546;28;20667;-71
2022/08/18 02:56:26;;;;;;;116.93;71.32;;;19.60;99.90;;;;;;5114990;28;20214;-72
2022/08/18 02:58:58;;;;;;;119.63;72.53;;;19.70;99.90;;;;;;5114961;28;20212;-71
2022/08/18 03:01:31;;;;;;;118.63;70.47;;;19.60;99.90;;;;;;5114973;28;20246;-70
2022/08/18 03:03:58;;;;;;;114.07;69.38;;;19.50;99.90;;;;;;5114888;28;20163;-70
2022/08/18 03:06:25;;;;;;;116.38;70.90;;;19.40;99.90;;;;;;5114606;28;20167;-71
2022/08/18 03:08:52;;;;;;;108.43;69.28;;;19.40;99.90;;;;;;5114259;28;20236;-70
2022/08/18 03:11:21;;;;;;;114.18;69.22;;;19.30;99.90;;;;;;5114147;28;20159;-70
2022/08/18 03:13:47;;;;;;;114.25;69.28;;;19.30;99.90;;;;;;5114498;28;20296;-71
2022/08/18 03:16:14;;;;;;;110.43;67.38;;;19.30;99.90;;;;;;5114281;28;20764;-70
2022/08/18 03:18:41;;;;;;;111.75;69.05;;;19.30;99.90;;;;;;5114210;28;20171;-70
2022/08/18 03:21:13;;;;;;;116.45;69.97;;;19.30;99.90;;;;;;5114302;28;20625;-70
2022/08/18 03:23:40;;;;;;;118.05;70.45;;;19.40;99.90;;;;;;5112639;28;20167;-71
2022/08/18 03:26:10;;;;;;;117.97;70.68;;;19.30;99.90;;;;;;5112990;28;20183;-71
2022/08/18 03:28:40;;;;;;;110.13;68.35;;;19.40;99.90;;;;;;5114318;28;20203;-71
2022/08/18 03:31:07;;;;;;;106.78;67.50;;;19.30;99.90;;;;;;5113965;28;20581;-71
2022/08/18 03:33:33;;;;;;;106.45;67.28;;;19.30;99.90;;;;;;5113456;28;20179;-71
2022/08/18 03:36:11;;;;;;;106.97;65.88;;;19.20;99.90;;;;;;5113979;28;20224;-72
2022/08/18 03:38:37;;;;;;;103.88;64.13;;;19.30;99.90;;;;;;5113731;28;20171;-71
2022/08/18 03:41:05;;;;;;;102.10;65.75;;;19.40;99.90;;;;;;5113812;28;20206;-71
2022/08/18 03:43:30;;;;;;;102.45;64.90;;;19.40;99.90;;;;;;5114069;28;20648;-71
2022/08/18 03:46:01;;;;;;;93.40;62.85;;;19.40;99.90;;;;;;5113845;28;20183;-70
2022/08/18 03:48:26;;;;;;;97.72;62.83;;;19.50;99.90;;;;;;5113945;28;20727;-70
2022/08/18 03:50:52;;;;;;;93.18;61.78;;;19.50;99.90;;;;;;5113489;28;20167;-70
2022/08/18 03:53:18;;;;;;;99.65;65.88;;;19.60;99.90;;;;;;5113286;28;20249;-70
2022/08/18 03:55:43;;;;;;;98.25;65.10;;;19.60;99.90;;;;;;5113644;28;20630;-70
2022/08/18 03:58:13;;;;;;;98.90;65.07;;;19.60;99.90;;;;;;5112749;28;20171;-70
2022/08/18 04:00:39;;;;;;;99.43;64.50;;;19.60;99.90;;;;;;5113431;28;20236;-71
2022/08/18 04:03:05;;;;;;;99.93;66.05;;;19.60;99.90;;;;;;5113146;28;20187;-70
2022/08/18 04:05:31;;;;;;;102.40;65.07;;;19.70;99.90;;;;;;5113642;28;20270;-71
2022/08/18 04:07:57;;;;;;;94.05;63.15;;;19.80;99.90;;;;;;5113238;28;20299;-71
2022/08/18 04:10:24;;;;;;;95.28;60.85;;;19.80;99.90;;;;;;5113402;27;20195;-71
2022/08/18 04:12:49;;;;;;;91.45;61.72;;;19.80;99.90;;;;;;5113152;28;20166;-70
2022/08/18 04:15:16;;;;;;;90.38;60.72;;;19.70;99.90;;;;;;5113162;28;20584;-69
2022/08/18 04:17:44;;;;;;;89.68;60.60;;;19.90;99.90;;;;;;5113370;28;20220;-70
2022/08/18 04:20:11;;;;;;;91.88;60.20;;;19.80;99.90;;;;;;5113394;28;20707;-70
2022/08/18 04:22:37;;;;;;;90.43;58.80;;;19.80;99.90;;;;;;5112950;28;20186;-69
2022/08/18 04:25:03;;;;;;;80.10;56.97;;;19.70;99.90;;;;;;5113386;28;20535;-70
2022/08/18 04:27:29;;;;;;;77.57;56.33;;;19.70;99.90;;;;;;5112674;28;20167;-71
2022/08/18 04:29:58;;;;;;;83.25;55.53;;;19.60;99.90;;;;;;5113476;28;20622;-70
2022/08/18 04:32:24;;;;;;;82.88;54.33;;;19.70;99.90;;;;;;5113228;28;20175;-71
2022/08/18 04:34:49;;;;;;;81.70;56.70;;;19.80;99.90;;;;;;5112687;28;20172;-70
2022/08/18 04:37:16;;;;;;;82.68;56.08;;;19.80;99.90;;;;;;5113596;28;20296;-71
2022/08/18 04:39:42;;;;;;;79.25;55.00;;;19.80;99.90;;;;;;5113104;28;20167;-70
2022/08/18 04:42:08;;;;;;;83.45;55.33;;;19.80;99.90;;;;;;5112505;28;20591;-70
2022/08/18 04:44:36;;;;;;;82.32;55.47;;;19.90;99.90;;;;;;5114208;28;20317;-71
2022/08/18 04:47:03;;;;;;;82.75;56.22;;;19.80;99.90;;;;;;5116990;28;20170;-70
2022/08/18 04:49:30;;;;;;;84.88;56.20;;;19.70;99.90;;;;;;5116833;28;20210;-70
2022/08/18 04:54:42;;;;;;;79.07;53.78;;;19.70;99.90;;;;;;5116814;28;20208;-70
2022/08/18 04:57:08;;;;;;;79.43;51.88;;;19.70;99.90;;;;;;5116951;28;20596;-70
2022/08/18 04:59:34;;;;;;;78.68;56.60;;;19.70;99.90;;;;;;5116880;28;20213;-70
2022/08/18 05:02:01;;;;;;;77.03;54.22;;;19.70;99.90;;;;;;5116136;28;20251;-71
2022/08/18 05:04:28;;;;;;;81.90;55.80;;;19.70;99.90;;;;;;5116952;28;20243;-71
2022/08/18 05:06:53;;;;;;;84.43;57.10;;;19.80;99.90;;;;;;5115248;28;20211;-71
2022/08/18 05:09:19;;;;;;;84.55;55.15;;;19.90;99.90;;;;;;5116370;28;20210;-70
2022/08/18 05:11:44;;;;;;;83.65;56.10;;;19.90;99.90;;;;;;5116917;28;20167;-70
2022/08/18 05:14:10;;;;;;;75.78;55.42;;;20.00;99.90;;;;;;5116512;28;20216;-71
2022/08/18 05:16:37;;;;;;;82.22;55.83;;;20.20;99.90;;;;;;5116716;28;20246;-70
2022/08/18 05:19:04;;;;;;;81.95;55.95;;;20.30;99.90;;;;;;5115790;28;20495;-70
2022/08/18 05:21:31;;;;;;;76.72;54.55;;;20.40;99.90;;;;;;5116438;28;20410;-69
2022/08/18 05:23:57;;;;;;;80.10;56.40;;;20.50;99.90;;;;;;5116121;28;20558;-70
2022/08/18 05:26:23;;;;;;;75.85;53.13;;;20.50;99.90;;;;;;5116191;28;20179;-70
2022/08/18 05:28:48;;;;;;;73.32;53.85;;;20.60;99.90;;;;;;5116347;28;20696;-71
2022/08/18 05:31:17;;;;;;;73.28;52.47;;;20.70;99.90;;;;;;5115799;28;20205;-71
2022/08/18 05:33:44;;;;;;;71.30;51.50;;;20.70;99.90;;;;;;5115771;28;20222;-70
2022/08/18 05:36:24;;;;;;;70.28;53.30;;;20.70;99.90;;;;;;5115956;28;20626;-70
2022/08/18 05:39:12;;;;;;;73.63;52.15;;;20.80;99.90;;;;;;5115912;28;20174;-71
2022/08/18 05:41:45;;;;;;;66.65;50.15;;;20.80;99.90;;;;;;5115671;28;20207;-70
2022/08/18 05:44:20;;;;;;;63.70;48.28;;;20.90;99.90;;;;;;5115861;27;20164;-70
2022/08/18 05:46:54;;;;;;;60.13;47.65;;;21.10;99.90;;;;;;5115515;28;20621;-70
2022/08/18 05:49:21;;;;;;;60.95;47.40;;;21.20;99.90;;;;;;5115037;28;20213;-71
2022/08/18 05:52:11;;;;;;;57.08;47.35;;;21.40;99.90;;;;;;5115457;28;20166;-70
2022/08/18 05:57:43;;;;;;;57.42;45.13;;;21.60;99.90;;;;;;5115097;28;20220;-71
2022/08/18 06:00:10;;;;;;;55.80;44.92;;;22.00;99.90;;;;;;5115577;28;20167;-70
2022/08/18 06:02:53;;;;;;;52.88;43.58;;;22.60;83.90;;;;;;5115056;28;20175;-70
2022/08/18 06:05:32;;;;;;;50.10;40.88;;;23.00;57.00;;;;;;5115806;28;20253;-71
2022/08/18 06:08:08;;;;;;;50.13;40.40;;;23.60;21.20;;;;;;5114735;28;20214;-70
2022/08/18 06:10:36;;;;;;;55.38;44.38;;;23.80;3.50;;;;;;5114897;28;20630;-70
2022/08/18 06:13:02;;;;;;;51.50;44.42;;;23.80;1.00;;;;;;5114795;28;20227;-71
2022/08/18 06:15:49;;;;;;;52.88;44.42;;;23.90;1.00;;;;;;5115111;28;20242;-72
2022/08/18 06:18:30;;;;;;;53.80;46.35;;;24.20;1.00;;;;;;5114385;28;20190;-70
2022/08/18 06:21:37;;;;;;;51.72;44.25;;;25.00;1.00;;;;;;5115178;28;20179;-70
2022/08/18 06:24:05;;;;;;;50.28;44.83;;;26.30;1.00;;;;;;5114372;28;20178;-71
2022/08/18 06:27:11;;;;;;;48.13;42.92;;;27.50;1.00;;;;;;5113600;28;20569;-71
2022/08/18 06:30:03;;;;;;;54.30;45.67;;;28.80;99.90;;;;;;5114432;28;20597;-71
2022/08/18 06:32:57;;;;;;;50.67;44.78;;;29.60;99.90;;;;;;5114480;28;20167;-71
2022/08/18 06:35:52;;;;;;;47.22;42.20;;;30.50;99.90;;;;;;5114607;28;20620;-72
2022/08/18 06:38:46;;;;;;;45.83;39.47;;;30.80;1.00;;;;;;5113864;28;20228;-72
2022/08/18 06:41:21;;;;;;;41.85;37.53;;;31.10;99.90;;;;;;5114460;28;20167;-72
2022/08/18 06:44:09;;;;;;;43.38;36.72;;;31.00;99.90;;;;;;5114869;28;20179;-72
2022/08/18 06:46:47;;;;;;;39.72;34.65;;;31.50;1.00;;;;;;5113852;28;20163;-74
2022/08/18 06:49:50;;;;;;;35.20;31.30;;;31.80;99.90;;;;;;5113484;28;20254;-73
2022/08/18 06:52:21;;;;;;;32.13;28.80;;;32.20;91.50;;;;;;5084253;28;20175;-73
2022/08/18 06:54:47;;;;;;;33.13;28.42;;;31.20;99.90;;;;;;5113907;28;20174;-72
2022/08/18 06:57:25;;;;;;;31.88;28.77;;;30.80;1.00;;;;;;5114083;28;20254;-74
2022/08/18 06:59:56;;;;;;;32.67;29.08;;;30.20;99.90;;;;;;5113676;28;20223;-73
2022/08/18 07:02:48;;;;;;;31.88;28.38;;;29.30;1.00;;;;;;5113939;28;20167;-73
2022/08/18 07:05:13;;;;;;;33.17;29.77;;;28.50;1.00;;;;;;5104645;28;20232;-73
2022/08/18 07:07:41;;;;;;;33.67;30.15;;;28.70;99.90;;;;;;5112971;28;20223;-73
2022/08/18 07:10:30;;;;;;;33.83;30.23;;;29.30;1.00;;;;;;5113417;28;20192;-73
2022/08/18 07:13:15;;;;;;;30.75;27.63;;;29.80;1.00;;;;;;5101211;28;20179;-73
2022/08/18 07:15:44;;;;;;;30.80;27.65;;;29.80;1.00;;;;;;5091525;28;20173;-73
2022/08/18 07:18:11;;;;;;;30.85;27.17;;;29.70;99.90;;;;;;5072650;28;20165;-72
2022/08/18 07:20:45;;;;;;;26.60;23.65;;;29.90;1.00;;;;;;5078916;28;20184;-76
2022/08/18 07:23:30;;;;;;;25.05;22.40;;;29.60;1.00;;;;;;5086841;28;20624;-74
2022/08/18 07:26:10;;;;;;;21.98;19.65;;;29.70;99.90;;;;;;5089187;28;20207;-77
2022/08/18 07:28:47;;;;;;;16.80;15.23;;;28.90;99.90;;;;;;5102996;28;20218;-76
2022/08/18 07:31:41;;;;;;;13.05;11.77;;;30.40;99.90;;;;;;5097521;28;20172;-77
2022/08/18 07:34:11;;;;;;;12.65;11.43;;;31.30;99.90;;;;;;5097582;28;20531;-75
2022/08/18 07:36:47;;;;;;;12.35;11.25;;;31.50;1.00;;;;;;5097172;28;20176;-77
2022/08/18 07:39:25;;;;;;;16.05;14.55;;;30.70;99.90;;;;;;5080987;28;20496;-77
2022/08/18 07:42:17;;;;;;;13.25;12.18;;;30.60;99.90;;;;;;5066519;28;20284;-76
2022/08/18 07:44:58;;;;;;;18.13;16.35;;;29.70;99.90;;;;;;5063469;28;20194;-76
2022/08/18 07:47:42;;;;;;;19.00;14.57;;;30.20;99.90;;;;;;5080025;28;20703;-76
2022/08/18 07:50:07;;;;;;;15.55;13.90;;;30.00;37.80;;;;;;5074913;28;20184;-76
2022/08/18 07:52:59;;;;;;;15.02;13.48;;;29.70;1.00;;;;;;5079123;28;20202;-76
2022/08/18 07:55:29;;;;;;;16.92;15.23;;;29.30;99.90;;;;;;5026697;28;20686;-76
2022/08/18 07:58:09;;;;;;;19.50;14.27;;;28.20;99.90;;;;;;5076978;28;20660;-73
2022/08/18 08:00:43;;;;;;;15.50;12.15;;;28.50;1.00;;;;;;5073940;28;20184;-73
2022/08/18 08:03:30;;;;;;;12.32;11.00;;;29.90;1.00;;;;;;5086228;28;20236;-74
2022/08/18 08:06:26;;;;;;;12.13;10.88;;;30.80;99.90;;;;;;5083286;28;20533;-76
2022/08/18 08:09:37;;;;;;;12.20;11.18;;;30.10;1.00;;;;;;5087413;28;20222;-75
2022/08/18 08:12:41;;;;;;;14.07;11.02;;;31.10;99.90;;;;;;5051048;28;20188;-75
2022/08/18 08:15:36;;;;;;;12.05;10.93;;;31.60;1.00;;;;;;5085769;28;20176;-73
2022/08/18 08:18:32;;;;;;;10.68;9.75;;;31.70;1.00;;;;;;5023955;28;20193;-79
2022/08/18 08:21:04;;;;;;;11.63;10.65;;;32.40;1.00;;;;;;5008741;28;20193;-78
2022/08/18 08:23:39;;;;;;;12.15;10.32;;;31.50;1.00;;;;;;5024245;28;20240;-75
2022/08/18 08:26:31;;;;;;;15.50;14.10;;;29.90;1.00;;;;;;5019720;28;20275;-74
2022/08/18 08:29:11;;;;;;;18.35;16.67;;;30.10;1.00;;;;;;5021377;28;20229;-76
2022/08/18 08:32:13;;;;;;;17.25;15.18;;;30.40;1.00;;;;;;5021057;28;20178;-75
2022/08/18 08:34:51;;;;;;;17.27;14.38;;;31.20;1.00;;;;;;5006507;28;20205;-76
2022/08/18 08:37:35;;;;;;;17.92;16.23;;;31.60;1.00;;;;;;5004204;28;20185;-74
2022/08/18 08:40:15;;;;;;;13.73;12.45;;;31.10;1.00;;;;;;5023041;28;20653;-76
2022/08/18 08:42:51;;;;;;;15.32;11.95;;;30.80;1.00;;;;;;5024073;28;20559;-76
2022/08/18 08:45:56;;;;;;;13.40;11.90;;;30.10;1.00;;;;;;5016142;28;20208;-74
2022/08/18 08:48:28;;;;;;;13.65;12.45;;;31.30;1.00;;;;;;4991552;28;20221;-73
2022/08/18 08:50:58;;;;;;;15.05;13.32;;;32.40;1.00;;;;;;5021922;28;20205;-73
2022/08/18 08:53:38;;;;;;;13.82;12.43;;;31.90;1.00;;;;;;5024103;28;20273;-74
2022/08/18 08:56:13;;;;;;;13.38;12.00;;;32.40;1.00;;;;;;5074573;28;20221;-75
2022/08/18 08:58:43;;;;;;;13.60;12.20;;;32.50;99.90;;;;;;5074290;28;20180;-77
2022/08/18 09:01:23;;;;;;;13.07;11.98;;;32.00;1.00;;;;;;5089967;28;20699;-76
2022/08/18 09:03:56;;;;;;;14.27;12.85;;;32.00;1.00;;;;;;5077376;28;20176;-73
2022/08/18 09:06:41;;;;;;;12.50;11.25;;;32.60;99.90;;;;;;5082863;28;20168;-73
2022/08/18 09:09:14;;;;;;;10.50;9.27;;;33.00;99.90;;;;;;5084238;28;20223;-74
2022/08/18 09:12:01;;;;;;;10.55;9.60;;;34.50;99.90;;;;;;5083259;28;20179;-74
2022/08/18 09:14:50;;;;;;;12.35;10.00;;;35.40;99.90;;;;;;5086417;28;20179;-71
2022/08/18 09:17:51;;;;;;;14.55;10.57;;;36.30;99.90;;;;;;5086205;28;20253;-72
2022/08/18 09:20:47;;;;;;;13.23;10.70;;;37.20;99.90;;;;;;5080633;28;20229;-75
2022/08/18 09:23:20;;;;;;;10.80;9.75;;;36.10;99.90;;;;;;5076263;28;20206;-73
2022/08/18 09:25:52;;;;;;;10.70;9.80;;;34.80;99.90;;;;;;5077967;28;21628;-75
2022/08/18 09:28:28;;;;;;;11.13;10.23;;;33.90;99.90;;;;;;5078050;28;20292;-74
2022/08/18 09:31:06;;;;;;;21.38;11.23;;;32.90;99.90;;;;;;5085087;28;20206;-76
2022/08/18 09:33:44;;;;;;;13.13;9.85;;;32.60;99.90;;;;;;5081678;28;20210;-77
2022/08/18 09:36:39;;;;;;;14.82;9.55;;;32.50;99.90;;;;;;5080181;28;20188;-75
2022/08/18 09:42:35;;;;;;;10.05;9.02;;;33.90;99.90;;;;;;5091370;28;20660;-74
2022/08/18 09:45:07;;;;;;;14.95;8.40;;;33.70;99.90;;;;;;5093149;28;20208;-76
2022/08/18 09:47:36;;;;;;;11.20;8.13;;;34.20;99.90;;;;;;5093175;28;20650;-75
2022/08/18 09:50:04;;;;;;;11.80;8.52;;;34.00;99.90;;;;;;5080020;28;20187;-76
2022/08/18 09:52:33;;;;;;;10.13;8.43;;;33.30;99.90;;;;;;5082806;28;20176;-77
2022/08/18 09:54:58;;;;;;;9.45;8.63;;;32.50;99.90;;;;;;5078488;28;20207;-73
2022/08/18 09:57:39;;;;;;;12.23;7.60;;;32.90;99.90;;;;;;5089624;28;20917;-74
2022/08/18 10:00:10;;;;;;;11.18;8.15;;;33.30;99.90;;;;;;5085265;28;20639;-74
2022/08/18 10:02:36;;;;;;;10.55;6.55;;;32.10;99.90;;;;;;5089995;28;20180;-77
2022/08/18 10:05:26;;;;;;;7.78;7.07;;;31.40;1.00;;;;;;5075373;28;20261;-75
2022/08/18 10:08:00;;;;;;;9.07;8.27;;;32.50;99.90;;;;;;5074005;28;20212;-75
2022/08/18 10:10:54;;;;;;;7.18;6.47;;;32.20;99.90;;;;;;5081487;28;20252;-76
2022/08/18 10:13:28;;;;;;;9.68;8.35;;;32.60;99.90;;;;;;5080005;28;20568;-75
2022/08/18 10:16:18;;;;;;;8.73;7.88;;;31.30;99.90;;;;;;5077207;28;20187;-77
2022/08/18 10:19:26;;;;;;;9.05;8.07;;;30.40;1.00;;;;;;5086228;28;20244;-74
2022/08/18 10:21:57;;;;;;;10.65;9.68;;;30.50;1.00;;;;;;5058890;28;20217;-75
2022/08/18 10:24:43;;;;;;;8.43;7.78;;;30.30;1.00;;;;;;5090130;28;20623;-76
2022/08/18 10:27:30;;;;;;;8.00;7.20;;;31.70;1.00;;;;;;5084980;28;20247;-75
2022/08/18 10:29:57;;;;;;;7.50;6.90;;;33.10;99.90;;;;;;5089295;28;20188;-76
2022/08/18 10:32:36;;;;;;;8.80;8.10;;;33.60;99.90;;;;;;5092445;28;20165;-79
2022/08/18 10:35:04;;;;;;;8.05;7.55;;;33.20;99.90;;;;;;5088950;28;20662;-78
2022/08/18 10:37:46;;;;;;;8.68;8.07;;;32.90;99.90;;;;;;5082396;28;20704;-78
2022/08/18 10:40:19;;;;;;;9.25;8.55;;;32.00;99.90;;;;;;5086178;28;20168;-80
2022/08/18 10:42:50;;;;;;;9.38;8.57;;;30.60;1.00;;;;;;5085187;28;20259;-78
2022/08/18 10:45:35;;;;;;;10.15;9.38;;;29.80;1.00;;;;;;5089832;28;20225;-75
2022/08/18 10:48:04;;;;;;;12.25;9.20;;;28.30;99.90;;;;;;5088537;28;20701;-77
2022/08/18 10:50:57;;;;;;;10.32;9.43;;;27.90;1.00;;;;;;5089765;28;20171;-76
2022/08/18 10:53:35;;;;;;;11.00;10.10;;;27.80;1.00;;;;;;5090881;28;20191;-74
2022/08/18 10:56:36;;;;;;;9.85;8.95;;;27.30;1.00;;;;;;5092741;28;20175;-74
2022/08/18 10:59:10;;;;;;;8.98;7.93;;;27.50;1.00;;;;;;5090773;28;20282;-77
2022/08/18 11:02:33;;;;;;;8.45;7.68;;;28.60;99.90;;;;;;5090601;28;20254;-75
2022/08/18 11:05:05;;;;;;;8.60;7.97;;;29.40;99.90;;;;;;5025918;28;20178;-76
2022/08/18 11:07:31;;;;;;;8.25;7.47;;;30.70;1.00;;;;;;5027479;28;20245;-77
2022/08/18 11:09:58;;;;;;;33.78;10.07;;;31.40;1.00;;;;;;5069009;28;20221;-77
2022/08/18 11:13:12;;;;;;;8.95;8.00;;;31.90;99.90;;;;;;5090230;28;20658;-76
2022/08/18 11:16:11;;;;;;;8.35;7.28;;;31.90;99.90;;;;;;5050440;28;20576;-76
2022/08/18 11:18:48;;;;;;;8.07;7.38;;;31.80;99.90;;;;;;5092431;28;20610;-77
2022/08/18 11:21:33;;;;;;;8.35;7.68;;;31.60;1.00;;;;;;5092233;28;20159;-76
2022/08/18 11:24:05;;;;;;;8.45;7.70;;;31.10;1.00;;;;;;5089384;28;20179;-76
2022/08/18 11:26:33;;;;;;;8.38;7.78;;;30.20;1.00;;;;;;5086436;28;20172;-76
2022/08/18 11:29:20;;;;;;;7.70;7.00;;;29.90;1.00;;;;;;5090340;28;20248;-77
2022/08/18 11:31:48;;;;;;;8.07;7.40;;;29.70;99.90;;;;;;5079821;28;20200;-77
2022/08/18 11:34:24;;;;;;;7.00;6.40;;;30.20;1.00;;;;;;5093425;28;20255;-77
2022/08/18 11:36:58;;;;;;;7.00;6.50;;;30.80;1.00;;;;;;5088867;28;20183;-78
2022/08/18 11:39:24;;;;;;;7.70;7.20;;;30.80;99.90;;;;;;5091031;28;20563;-75
2022/08/18 11:41:50;;;;;;;7.78;7.07;;;30.90;99.90;;;;;;5093998;28;20281;-77
2022/08/18 11:44:21;;;;;;;8.05;7.43;;;30.10;1.00;;;;;;5091326;28;20627;-76
2022/08/18 11:46:47;;;;;;;7.85;7.25;;;29.90;1.00;;;;;;5087985;28;20188;-76
2022/08/18 11:49:18;;;;;;;7.47;6.90;;;30.10;1.00;;;;;;5091350;28;20200;-77
2022/08/18 11:51:59;;;;;;;7.32;6.80;;;30.80;1.00;;;;;;5089726;28;20179;-76
2022/08/18 11:54:41;;;;;;;7.13;6.53;;;32.20;99.90;;;;;;5078770;28;20191;-77
2022/08/18 11:57:44;;;;;;;7.45;7.05;;;32.90;99.90;;;;;;5079662;28;20178;-76
2022/08/18 12:00:36;;;;;;;9.15;8.32;;;33.30;99.90;;;;;;5089283;28;20178;-76
2022/08/18 12:03:14;;;;;;;8.68;8.00;;;33.00;99.90;;;;;;5080874;28;20180;-77
2022/08/18 12:05:51;;;;;;;9.10;8.30;;;31.80;99.90;;;;;;5076656;28;20179;-77
2022/08/18 12:08:46;;;;;;;11.50;10.70;;;31.30;99.90;;;;;;5087941;28;20264;-77
2022/08/18 12:11:22;;;;;;;11.88;11.07;;;31.50;99.90;;;;;;5079079;28;20229;-78
2022/08/18 12:13:57;;;;;;;13.25;11.90;;;31.40;99.90;;;;;;5079146;28;20256;-77
2022/08/18 12:16:38;;;;;;;12.48;11.35;;;31.00;99.90;;;;;;5064826;28;20222;-76
2022/08/18 12:19:06;;;;;;;14.05;13.00;;;30.80;99.90;;;;;;5081912;28;20188;-76
2022/08/18 12:21:32;;;;;;;13.77;12.70;;;30.40;99.90;;;;;;5084102;28;20275;-77
2022/08/18 12:23:58;;;;;;;16.25;14.95;;;30.20;99.90;;;;;;5080519;28;20203;-76
2022/08/18 12:26:24;;;;;;;16.55;15.25;;;29.90;1.00;;;;;;5073297;28;20183;-76
2022/08/18 12:28:49;;;;;;;14.90;13.75;;;29.30;1.00;;;;;;5082868;28;21069;-75
2022/08/18 12:31:16;;;;;;;15.48;14.23;;;29.40;1.00;;;;;;5069531;28;20201;-75
2022/08/18 12:33:41;;;;;;;16.85;15.63;;;29.60;1.00;;;;;;5077304;28;20262;-74
2022/08/18 12:36:08;;;;;;;15.38;14.07;;;29.90;1.00;;;;;;5077616;28;20742;-74
2022/08/18 12:38:34;;;;;;;16.13;14.93;;;30.10;1.00;;;;;;5088684;28;20199;-74
2022/08/18 12:40:59;;;;;;;18.92;17.38;;;30.40;1.00;;;;;;5082649;28;20715;-74
2022/08/18 12:43:26;;;;;;;19.10;17.60;;;30.40;1.00;;;;;;5088361;28;20176;-74
2022/08/18 12:45:51;;;;;;;18.40;16.63;;;30.20;1.00;;;;;;5086875;28;20175;-75
2022/08/18 12:48:17;;;;;;;18.90;17.48;;;30.20;1.00;;;;;;5084653;28;20202;-77
2022/08/18 12:50:43;;;;;;;18.80;17.15;;;30.10;1.00;;;;;;5084843;28;20841;-75
2022/08/18 12:53:10;;;;;;;17.85;16.38;;;30.10;1.00;;;;;;5083271;28;20171;-73
2022/08/18 12:55:41;;;;;;;18.13;16.80;;;30.10;1.00;;;;;;5079403;28;20180;-76
2022/08/18 12:58:07;;;;;;;17.88;16.48;;;29.80;1.00;;;;;;5088134;28;20176;-78
2022/08/18 13:00:34;;;;;;;18.98;17.48;;;28.90;1.00;;;;;;5091408;28;20491;-75
2022/08/18 13:02:59;;;;;;;19.60;17.90;;;28.80;1.00;;;;;;5089329;28;20179;-74
2022/08/18 13:05:27;;;;;;;19.60;17.95;;;28.50;58.80;;;;;;5088010;28;20187;-74
2022/08/18 13:07:56;;;;;;;18.35;16.77;;;28.10;1.00;;;;;;5095571;28;20211;-76
2022/08/18 13:10:22;;;;;;;18.25;16.80;;;27.90;99.90;;;;;;5085541;28;20190;-74
2022/08/18 13:12:47;;;;;;;19.83;17.88;;;27.70;44.90;;;;;;5085746;28;20180;-75
2022/08/18 13:15:13;;;;;;;18.02;16.60;;;27.70;1.00;;;;;;5075105;28;20183;-74
2022/08/18 13:17:39;;;;;;;19.83;18.02;;;28.10;1.00;;;;;;5080623;28;20191;-74
2022/08/18 13:20:08;;;;;;;19.23;17.67;;;28.40;1.00;;;;;;5084681;28;20164;-74
2022/08/18 13:22:35;;;;;;;18.95;17.33;;;28.10;1.00;;;;;;5090138;28;20168;-73